createdAt,value
2018-11-28T00:02:43.701Z,98407.00
2018-11-28T00:06:46.043Z,98401.00
2018-11-28T00:10:48.455Z,98402.00
2018-11-28T00:14:50.828Z,98393.00
2018-11-28T00:18:53.213Z,98400.00
2018-11-28T00:22:55.647Z,98394.00
2018-11-28T00:26:58.129Z,98398.00
2018-11-28T00:31:00.470Z,98391.00
2018-11-28T00:35:02.910Z,98397.00
2018-11-28T00:39:07.142Z,98395.00
2018-11-28T00:43:09.592Z,98400.00
2018-11-28T00:47:11.957Z,98391.00
2018-11-28T00:51:14.263Z,98391.00
2018-11-28T00:55:17.399Z,98392.00
2018-11-28T00:59:19.757Z,98394.00
2018-11-28T01:03:22.200Z,98390.00
2018-11-28T01:07:24.595Z,98386.00
2018-11-28T01:11:26.971Z,98388.00
2018-11-28T01:15:29.348Z,98391.00
2018-11-28T01:19:31.766Z,98387.00
2018-11-28T01:23:34.188Z,98389.00
2018-11-28T01:27:36.739Z,98385.00
2018-11-28T01:31:39.105Z,98390.00
2018-11-28T01:35:41.442Z,98385.00
2018-11-28T01:39:43.771Z,98383.00
2018-11-28T01:43:46.122Z,98380.00
2018-11-28T01:47:48.668Z,98371.00
2018-11-28T01:51:51.070Z,98381.00
2018-11-28T01:55:53.547Z,98378.00
2018-11-28T01:59:56.002Z,98375.00
2018-11-28T02:03:58.337Z,98378.00
2018-11-28T02:08:00.699Z,98378.00
2018-11-28T02:12:03.120Z,98376.00
2018-11-28T02:16:06.016Z,98381.00
2018-11-28T02:20:10.018Z,98370.00
2018-11-28T02:24:12.390Z,98373.00
2018-11-28T02:28:14.710Z,98366.00
2018-11-28T02:32:17.247Z,98371.00
2018-11-28T02:36:19.602Z,98359.00
2018-11-28T02:40:21.970Z,98362.00
2018-11-28T02:44:24.395Z,98364.00
2018-11-28T02:48:26.811Z,98367.00
2018-11-28T02:52:29.126Z,98374.00
2018-11-28T02:56:31.492Z,98379.00
2018-11-28T03:00:33.807Z,98380.00
2018-11-28T03:04:36.208Z,98381.00
2018-11-28T03:08:38.595Z,98386.00
2018-11-28T03:12:41.037Z,98383.00
2018-11-28T03:16:43.456Z,98384.00
2018-11-28T03:20:45.804Z,98375.00
2018-11-28T03:24:48.160Z,98379.00
2018-11-28T03:28:50.501Z,98378.00
2018-11-28T03:32:52.841Z,98387.00
2018-11-28T03:36:55.192Z,98384.00
2018-11-28T03:40:57.609Z,98387.00
2018-11-28T03:45:00.003Z,98381.00
2018-11-28T03:49:02.481Z,98394.00
2018-11-28T03:53:05.333Z,98387.00
2018-11-28T03:57:07.709Z,98383.00
2018-11-28T04:01:10.047Z,98383.00
2018-11-28T04:05:12.662Z,98391.00
2018-11-28T04:09:15.075Z,98407.00
2018-11-28T04:13:17.426Z,98402.00
2018-11-28T04:17:19.765Z,98405.00
2018-11-28T04:21:22.083Z,98405.00
2018-11-28T04:25:24.461Z,98399.00
2018-11-28T04:29:26.776Z,98403.00
2018-11-28T04:33:29.091Z,98407.00
2018-11-28T04:37:31.409Z,98393.00
2018-11-28T04:41:33.798Z,98392.00
2018-11-28T04:45:36.254Z,98397.00
2018-11-28T04:49:38.603Z,98377.00
2018-11-28T04:53:40.929Z,98365.00
2018-11-28T04:57:43.459Z,98368.00
2018-11-28T05:01:45.802Z,98375.00
2018-11-28T05:05:48.241Z,98370.00
2018-11-28T05:09:50.610Z,98368.00
2018-11-28T05:13:52.953Z,98380.00
2018-11-28T05:17:55.366Z,98384.00
2018-11-28T05:21:57.918Z,98388.00
2018-11-28T05:26:00.260Z,98395.00
2018-11-28T05:30:02.679Z,98399.00
2018-11-28T05:34:05.168Z,98389.00
2018-11-28T05:38:10.911Z,98394.00
2018-11-28T05:42:13.276Z,98389.00
2018-11-28T05:46:15.586Z,98382.00
2018-11-28T05:50:19.748Z,98383.00
2018-11-28T05:54:22.240Z,98378.00
2018-11-28T05:58:24.570Z,98389.00
2018-11-28T06:02:26.943Z,98381.00
2018-11-28T06:06:29.273Z,98386.00
2018-11-28T06:10:31.611Z,98380.00
2018-11-28T06:14:33.936Z,98393.00
2018-11-28T06:18:36.313Z,98402.00
2018-11-28T06:22:38.655Z,98407.00
2018-11-28T06:26:41.010Z,98411.00
2018-11-28T06:30:43.330Z,98421.00
2018-11-28T06:34:45.664Z,98433.00
2018-11-28T06:38:47.999Z,98432.00
2018-11-28T06:42:50.362Z,98424.00
2018-11-28T06:46:52.779Z,98425.00
2018-11-28T06:50:55.118Z,98426.00
2018-11-28T06:54:57.464Z,98426.00
2018-11-28T06:58:59.794Z,98426.00
2018-11-28T07:03:02.148Z,98441.00
2018-11-28T07:07:04.623Z,98430.00
2018-11-28T07:11:06.949Z,98431.00
2018-11-28T07:15:12.695Z,98434.00
2018-11-28T07:19:15.119Z,98440.00
2018-11-28T07:23:19.315Z,98440.00
2018-11-28T07:27:21.787Z,98445.00
2018-11-28T07:31:24.222Z,98445.00
2018-11-28T07:35:26.735Z,98449.00
2018-11-28T07:39:29.768Z,98451.00
2018-11-28T07:43:32.220Z,98453.00
2018-11-28T07:47:34.674Z,98451.00
2018-11-28T07:51:37.189Z,98454.00
2018-11-28T07:55:39.700Z,98455.00
2018-11-28T07:59:42.391Z,98466.00
2018-11-28T08:03:44.815Z,98471.00
2018-11-28T08:07:47.323Z,98483.00
2018-11-28T08:11:49.705Z,98485.00
2018-11-28T08:15:52.098Z,98486.00
2018-11-28T08:19:54.442Z,98492.00
2018-11-28T08:23:56.884Z,98495.00
2018-11-28T08:27:59.374Z,98499.00
2018-11-28T08:32:01.736Z,98507.00
2018-11-28T08:36:04.054Z,98514.00
2018-11-28T08:40:12.551Z,98504.00
2018-11-28T08:44:14.973Z,98495.00
2018-11-28T08:48:18.550Z,98502.00
2018-11-28T08:52:20.962Z,98504.00
2018-11-28T08:56:23.365Z,98501.00
2018-11-28T09:00:26.419Z,98506.00
2018-11-28T09:04:28.906Z,98504.00
2018-11-28T09:08:31.352Z,98507.00
2018-11-28T09:12:33.869Z,98506.00
2018-11-28T09:16:36.409Z,98494.00
2018-11-28T09:20:38.915Z,98488.00
2018-11-28T09:24:41.760Z,98491.00
2018-11-28T09:28:44.168Z,98499.00
2018-11-28T09:32:47.541Z,98494.00
2018-11-28T09:36:49.933Z,98504.00
2018-11-28T09:40:53.123Z,98512.00
2018-11-28T09:44:55.499Z,98494.00
2018-11-28T09:48:57.905Z,98506.00
2018-11-28T09:53:00.297Z,98481.00
2018-11-28T09:57:02.643Z,98510.00
2018-11-28T10:01:05.448Z,98520.00
2018-11-28T10:05:10.026Z,98511.00
2018-11-28T10:09:12.451Z,98513.00
2018-11-28T10:13:14.897Z,98506.00
2018-11-28T10:17:17.338Z,98507.00
2018-11-28T10:21:19.831Z,98505.00
2018-11-28T10:25:23.969Z,98502.00
2018-11-28T10:29:26.391Z,98495.00
2018-11-28T10:33:28.856Z,98504.00
2018-11-28T10:37:31.548Z,98493.00
2018-11-28T10:41:33.875Z,98505.00
2018-11-28T10:45:36.434Z,98493.00
2018-11-28T10:49:38.845Z,98490.00
2018-11-28T10:53:41.265Z,98488.00
2018-11-28T10:57:43.855Z,98486.00
2018-11-28T11:01:51.203Z,98486.00
2018-11-28T11:05:59.349Z,98474.00
2018-11-28T11:10:07.348Z,98481.00
2018-11-28T11:14:15.365Z,98483.00
2018-11-28T11:18:18.515Z,98475.00
2018-11-28T11:22:20.884Z,98474.00
2018-11-28T11:26:23.510Z,98458.00
2018-11-28T11:30:25.989Z,98470.00
2018-11-28T11:34:28.430Z,98464.00
2018-11-28T11:38:30.821Z,98460.00
2018-11-28T11:42:33.289Z,98461.00
2018-11-28T11:46:35.650Z,98464.00
2018-11-28T11:50:38.155Z,98456.00
2018-11-28T11:54:40.529Z,98449.00
2018-11-28T11:58:43.019Z,98455.00
2018-11-28T12:02:52.411Z,98446.00
2018-11-28T12:06:54.888Z,98441.00
2018-11-28T12:10:57.880Z,98434.00
2018-11-28T12:15:00.243Z,98435.00
2018-11-28T12:19:02.758Z,98430.00
2018-11-28T12:23:05.340Z,98424.00
2018-11-28T12:27:07.714Z,98424.00
2018-11-28T12:31:10.175Z,98421.00
2018-11-28T12:35:15.918Z,98422.00
2018-11-28T12:43:21.094Z,98422.00
2018-11-28T12:47:23.474Z,98430.00
2018-11-28T12:51:26.008Z,98430.00
2018-11-28T12:55:29.276Z,98421.00
2018-11-28T12:59:31.977Z,98418.00
2018-11-28T13:03:34.482Z,98421.00
2018-11-28T13:07:37.777Z,98414.00
2018-11-28T13:11:40.199Z,98414.00
2018-11-28T13:15:42.574Z,98409.00
2018-11-28T13:19:44.981Z,98403.00
2018-11-28T13:23:47.409Z,98410.00
2018-11-28T13:27:49.928Z,98414.00
2018-11-28T13:31:52.328Z,98409.00
2018-11-28T13:35:56.321Z,98404.00
2018-11-28T13:39:58.826Z,98416.00
2018-11-28T13:44:01.287Z,98399.00
2018-11-28T13:48:03.708Z,98393.00
2018-11-28T13:52:06.111Z,98385.00
2018-11-28T14:00:11.771Z,98393.00
2018-11-28T14:04:14.858Z,98394.00
2018-11-28T14:08:17.282Z,98399.00
2018-11-28T14:12:19.741Z,98401.00
2018-11-28T14:16:22.202Z,98397.00
2018-11-28T14:20:24.636Z,98393.00
2018-11-28T14:24:27.051Z,98393.00
2018-11-28T14:28:29.473Z,98390.00
2018-11-28T14:32:31.928Z,98383.00
2018-11-28T14:36:34.418Z,98400.00
2018-11-28T14:40:36.836Z,98394.00
2018-11-28T14:44:39.313Z,98391.00
2018-11-28T14:48:41.733Z,98385.00
2018-11-28T14:52:44.372Z,98372.00
2018-11-28T14:56:46.889Z,98389.00
2018-11-28T15:00:49.438Z,98409.00
2018-11-28T15:04:51.948Z,98405.00
2018-11-28T15:08:58.954Z,98404.00
2018-11-28T15:13:01.307Z,98407.00
2018-11-28T15:17:03.821Z,98408.00
2018-11-28T15:21:07.793Z,98395.00
2018-11-28T15:25:10.486Z,98384.00
2018-11-28T15:29:12.888Z,98375.00
2018-11-28T15:33:15.418Z,98387.00
2018-11-28T15:37:17.767Z,98380.00
2018-11-28T15:41:20.208Z,98376.00
2018-11-28T15:45:22.661Z,98373.00
2018-11-28T15:49:25.150Z,98366.00
2018-11-28T15:53:27.727Z,98351.00
2018-11-28T15:57:34.375Z,98365.00
2018-11-28T16:01:40.981Z,98361.00
2018-11-28T16:05:51.363Z,98369.00
2018-11-28T16:10:05.153Z,98368.00
2018-11-28T16:14:15.903Z,98368.00
2018-11-28T16:18:18.662Z,98359.00
2018-11-28T16:22:21.101Z,98368.00
2018-11-28T16:26:23.535Z,98381.00
2018-11-28T16:30:27.152Z,98379.00
2018-11-28T16:34:29.582Z,98376.00
2018-11-28T16:38:32.010Z,98373.00
2018-11-28T16:42:34.490Z,98374.00
2018-11-28T16:46:36.988Z,98348.00
2018-11-28T16:50:39.435Z,98362.00
2018-11-28T16:54:41.998Z,98365.00
2018-11-28T16:58:44.440Z,98363.00
2018-11-28T17:02:46.850Z,98361.00
2018-11-28T17:06:49.222Z,98361.00
2018-11-28T17:10:51.656Z,98376.00
2018-11-28T17:14:54.071Z,98370.00
2018-11-28T17:18:56.491Z,98363.00
2018-11-28T17:22:59.203Z,98384.00
2018-11-28T17:27:01.615Z,98384.00
2018-11-28T17:31:04.225Z,98382.00
2018-11-28T17:35:08.184Z,98378.00
2018-11-28T17:39:11.783Z,98383.00
2018-11-28T17:43:14.139Z,98379.00
2018-11-28T17:47:25.571Z,98371.00
2018-11-28T17:51:28.639Z,98380.00
2018-11-28T17:55:36.224Z,98377.00
2018-11-28T17:59:38.628Z,98385.00
2018-11-28T18:03:40.974Z,98392.00
2018-11-28T18:07:43.356Z,98406.00
2018-11-28T18:11:45.689Z,98407.00
2018-11-28T18:15:53.798Z,98386.00
2018-11-28T18:19:56.171Z,98381.00
2018-11-28T18:23:58.653Z,98380.00
2018-11-28T18:28:01.035Z,98376.00
2018-11-28T18:32:03.460Z,98371.00
2018-11-28T18:36:05.936Z,98376.00
2018-11-28T18:40:09.742Z,98375.00
2018-11-28T18:44:12.150Z,98379.00
2018-11-28T18:48:14.535Z,98356.00
2018-11-28T18:52:18.220Z,98363.00
2018-11-28T18:56:20.590Z,98376.00
2018-11-28T19:00:24.390Z,98373.00
2018-11-28T19:04:26.804Z,98372.00
2018-11-28T19:08:30.102Z,98374.00
2018-11-28T19:12:32.759Z,98389.00
2018-11-28T19:16:37.934Z,98395.00
2018-11-28T19:20:37.766Z,98386.00
2018-11-28T19:24:40.137Z,98386.00
2018-11-28T19:28:42.532Z,98373.00
2018-11-28T19:32:46.019Z,98375.00
2018-11-28T19:36:48.424Z,98371.00
2018-11-28T19:40:55.307Z,98377.00
2018-11-28T19:44:58.731Z,98385.00
2018-11-28T19:49:02.149Z,98366.00
2018-11-28T19:53:05.572Z,98378.00
2018-11-28T19:57:07.930Z,98388.00
2018-11-28T20:01:10.356Z,98393.00
2018-11-28T20:05:13.017Z,98395.00
2018-11-28T20:09:20.911Z,98384.00
2018-11-28T20:13:23.309Z,98388.00
2018-11-28T20:17:26.024Z,98368.00
2018-11-28T20:21:28.392Z,98386.00
2018-11-28T20:25:30.834Z,98384.00
2018-11-28T20:29:33.301Z,98377.00
2018-11-28T20:33:35.713Z,98383.00
2018-11-28T20:37:38.287Z,98378.00
2018-11-28T20:41:40.851Z,98373.00
2018-11-28T20:45:43.124Z,98364.00
2018-11-28T20:49:45.494Z,98369.00
2018-11-28T20:53:47.893Z,98359.00
2018-11-28T20:57:52.254Z,98358.00
2018-11-28T21:01:54.711Z,98350.00
2018-11-28T21:05:57.157Z,98362.00
2018-11-28T21:10:05.023Z,98367.00
2018-11-28T21:14:07.878Z,98354.00
2018-11-28T21:18:12.041Z,98357.00
2018-11-28T21:22:14.593Z,98363.00
2018-11-28T21:26:18.374Z,98367.00
2018-11-28T21:30:26.292Z,98376.00
2018-11-28T21:34:28.992Z,98357.00
2018-11-28T21:38:31.353Z,98356.00
2018-11-28T21:42:33.707Z,98350.00
2018-11-28T21:46:36.042Z,98333.00
2018-11-28T21:50:38.448Z,98326.00
2018-11-28T21:54:40.872Z,98314.00
2018-11-28T21:58:43.207Z,98315.00
2018-11-28T22:02:45.674Z,98309.00
2018-11-28T22:06:49.309Z,98291.00
2018-11-28T22:10:51.728Z,98315.00
2018-11-28T22:14:54.171Z,98336.00
2018-11-28T22:18:56.667Z,98352.00
2018-11-28T22:23:00.080Z,98395.00
2018-11-28T22:27:03.463Z,98404.00
2018-11-28T22:31:05.896Z,98395.00
2018-11-28T22:35:08.516Z,98375.00
2018-11-28T22:39:10.873Z,98363.00
2018-11-28T22:43:13.192Z,98355.00
2018-11-28T22:47:15.559Z,98361.00
2018-11-28T22:51:17.928Z,98353.00
2018-11-28T22:55:20.336Z,98367.00
2018-11-28T22:59:22.778Z,98368.00
2018-11-28T23:03:26.146Z,98362.00
2018-11-28T23:07:29.501Z,98344.00
2018-11-28T23:11:31.843Z,98333.00
2018-11-28T23:15:34.641Z,98335.00
2018-11-28T23:19:36.916Z,98326.00
2018-11-28T23:23:39.280Z,98328.00
2018-11-28T23:27:41.702Z,98321.00
2018-11-28T23:31:44.080Z,98320.00
2018-11-28T23:35:46.476Z,98326.00
2018-11-28T23:39:48.857Z,98324.00
2018-11-28T23:43:51.201Z,98334.00
2018-11-28T23:47:53.634Z,98328.00
2018-11-28T23:51:56.027Z,98330.00
2018-11-28T23:55:58.427Z,98317.00
